createdAt,value
2023-01-01T00:00:32.441Z,13.82
2023-01-01T00:04:00.928Z,13.75
2023-01-01T00:07:07.723Z,13.67
2023-01-01T00:10:29.652Z,13.60
2023-01-01T00:13:37.858Z,13.53
2023-01-01T00:16:44.810Z,13.45
2023-01-01T00:19:51.809Z,13.35
2023-01-01T00:22:58.526Z,13.27
2023-01-01T00:26:13.092Z,13.21
2023-01-01T00:29:20.014Z,13.12
2023-01-01T00:32:26.879Z,13.06
2023-01-01T00:35:34.582Z,13.01
2023-01-01T00:38:42.564Z,12.96
2023-01-01T00:41:49.204Z,12.92
2023-01-01T00:44:55.951Z,12.87
2023-01-01T00:48:02.662Z,12.82
2023-01-01T00:51:10.605Z,12.77
2023-01-01T00:54:17.433Z,12.73
2023-01-01T00:57:24.226Z,12.70
2023-01-01T01:00:31.135Z,12.69
2023-01-01T01:03:40.372Z,12.69
2023-01-01T01:06:47.146Z,12.72
2023-01-01T01:09:53.858Z,12.81
2023-01-01T01:13:00.605Z,12.86
2023-01-01T01:16:13.327Z,12.88
2023-01-01T01:19:23.961Z,12.88
2023-01-01T01:22:30.733Z,12.94
2023-01-01T01:25:37.641Z,13.02
2023-01-01T01:28:49.363Z,13.08
2023-01-01T01:31:56.876Z,13.13
2023-01-01T01:35:03.932Z,13.20
2023-01-01T01:38:11.188Z,13.28
2023-01-01T01:41:27.922Z,13.32
2023-01-01T01:44:57.990Z,13.34
2023-01-01T01:48:05.203Z,13.34
2023-01-01T01:51:14.568Z,13.35
2023-01-01T01:54:26.413Z,13.37
2023-01-01T01:57:34.431Z,13.39
2023-01-01T02:00:41.130Z,13.38
2023-01-01T02:03:54.528Z,13.39
2023-01-01T02:07:01.351Z,13.40
2023-01-01T02:10:09.356Z,13.40
2023-01-01T02:13:16.849Z,13.39
2023-01-01T02:16:28.934Z,13.40
2023-01-01T02:19:45.943Z,13.43
2023-01-01T02:23:24.081Z,13.46
2023-01-01T02:26:54.212Z,13.48
2023-01-01T02:30:05.511Z,13.49
2023-01-01T02:33:18.540Z,13.50
2023-01-01T02:36:27.803Z,13.55
2023-01-01T02:39:38.039Z,13.60
2023-01-01T02:42:45.889Z,13.61
2023-01-01T02:45:53.700Z,13.57
2023-01-01T02:49:06.228Z,13.56
2023-01-01T02:52:26.217Z,13.55
2023-01-01T02:55:42.800Z,13.51
2023-01-01T02:59:14.269Z,13.45
2023-01-01T03:02:30.890Z,13.37
2023-01-01T03:06:02.398Z,13.31
2023-01-01T03:09:18.918Z,13.21
2023-01-01T03:12:39.850Z,13.13
2023-01-01T03:15:53.805Z,13.10
2023-01-01T03:19:14.476Z,13.05
2023-01-01T03:22:25.882Z,13.02
2023-01-01T03:25:38.309Z,12.99
2023-01-01T03:28:50.154Z,12.97
2023-01-01T03:32:00.801Z,12.94
2023-01-01T03:35:08.757Z,12.94
2023-01-01T03:38:19.836Z,12.91
2023-01-01T03:41:33.440Z,12.88
2023-01-01T03:44:45.478Z,12.85
2023-01-01T03:47:52.284Z,12.80
2023-01-01T03:51:10.674Z,12.74
2023-01-01T03:54:25.084Z,12.67
2023-01-01T03:57:38.859Z,12.63
2023-01-01T04:00:52.414Z,12.57
2023-01-01T04:04:00.230Z,12.50
2023-01-01T04:07:15.182Z,12.43
2023-01-01T04:10:23.949Z,12.37
2023-01-01T04:13:30.893Z,12.29
2023-01-01T04:16:37.770Z,12.20
2023-01-01T04:19:50.072Z,12.11
2023-01-01T04:23:01.194Z,12.02
2023-01-01T04:26:12.811Z,11.95
2023-01-01T04:29:19.993Z,11.90
2023-01-01T04:32:26.820Z,11.85
2023-01-01T04:35:33.691Z,11.84
2023-01-01T04:38:40.653Z,11.87
2023-01-01T04:41:49.368Z,11.92
2023-01-01T04:44:56.052Z,11.98
2023-01-01T04:48:07.644Z,12.07
2023-01-01T04:51:16.759Z,12.09
2023-01-01T04:54:23.551Z,12.14
2023-01-01T04:57:31.939Z,12.22
2023-01-01T05:00:38.829Z,12.25
2023-01-01T05:03:45.677Z,12.27
2023-01-01T05:06:52.404Z,12.28
2023-01-01T05:09:59.163Z,12.26
2023-01-01T05:13:10.078Z,12.22
2023-01-01T05:16:19.335Z,12.17
2023-01-01T05:19:24.540Z,12.09
2023-01-01T05:22:31.413Z,11.99
2023-01-01T05:25:38.158Z,11.90
2023-01-01T05:28:45.274Z,11.82
2023-01-01T05:31:53.204Z,11.75
2023-01-01T05:35:00.158Z,11.68
2023-01-01T05:38:06.922Z,11.61
2023-01-01T05:41:16.075Z,11.59
2023-01-01T05:44:23.103Z,11.56
2023-01-01T05:47:30.700Z,11.55
2023-01-01T05:50:37.456Z,11.53
2023-01-01T05:53:45.969Z,11.57
2023-01-01T05:56:52.846Z,11.67
2023-01-01T05:59:59.678Z,11.77
2023-01-01T06:03:06.630Z,11.89
2023-01-01T06:06:15.246Z,12.00
2023-01-01T06:09:21.955Z,12.09
2023-01-01T06:12:28.906Z,12.18
2023-01-01T06:15:35.631Z,12.31
2023-01-01T06:18:42.688Z,12.48
2023-01-01T06:21:49.401Z,12.64
2023-01-01T06:24:56.074Z,12.76
2023-01-01T06:28:02.857Z,12.89
2023-01-01T06:31:11.673Z,12.98
2023-01-01T06:34:18.841Z,13.05
2023-01-01T06:37:25.870Z,13.12
2023-01-01T06:40:32.542Z,13.19
2023-01-01T06:43:39.474Z,13.23
2023-01-01T06:46:46.421Z,13.25
2023-01-01T06:49:53.122Z,13.23
2023-01-01T06:52:59.822Z,13.20
2023-01-01T06:56:07.718Z,13.14
2023-01-01T06:59:14.545Z,13.05
2023-01-01T07:02:21.409Z,12.96
2023-01-01T07:05:30.221Z,12.89
2023-01-01T07:08:37.129Z,12.87
2023-01-01T07:11:43.904Z,12.89
2023-01-01T07:14:50.677Z,12.94
2023-01-01T07:17:57.362Z,12.98
2023-01-01T07:21:05.653Z,13.03
2023-01-01T07:24:13.935Z,13.08
2023-01-01T07:27:20.705Z,13.10
2023-01-01T07:30:27.309Z,13.13
2023-01-01T07:33:34.172Z,13.19
2023-01-01T07:36:41.298Z,13.23
2023-01-01T07:39:49.456Z,13.29
2023-01-01T07:42:56.063Z,13.35
2023-01-01T07:46:03.322Z,13.43
2023-01-01T07:49:10.141Z,13.52
2023-01-01T07:52:17.163Z,13.61
2023-01-01T07:55:24.597Z,13.69
2023-01-01T07:58:31.328Z,13.75
2023-01-01T08:01:40.111Z,13.78
2023-01-01T08:04:47.007Z,13.80
2023-01-01T08:07:54.067Z,13.80
2023-01-01T08:11:04.416Z,13.80
2023-01-01T08:14:11.244Z,13.78
2023-01-01T08:17:18.791Z,13.74
2023-01-01T08:20:25.455Z,13.71
2023-01-01T08:23:32.270Z,13.69
2023-01-01T08:26:40.524Z,13.69
2023-01-01T08:29:47.893Z,13.69
2023-01-01T08:32:54.529Z,13.70
2023-01-01T08:36:01.833Z,13.72
2023-01-01T08:39:08.662Z,13.75
2023-01-01T08:42:16.121Z,13.77
2023-01-01T08:45:23.027Z,13.81
2023-01-01T08:48:31.078Z,13.84
2023-01-01T08:51:38.346Z,13.89
2023-01-01T08:54:46.161Z,13.97
2023-01-01T08:57:52.859Z,14.04
2023-01-01T09:01:00.562Z,14.11
2023-01-01T09:04:15.175Z,14.18
2023-01-01T09:07:22.966Z,14.25
2023-01-01T09:10:29.784Z,14.31
2023-01-01T09:13:37.011Z,14.37
2023-01-01T09:16:44.383Z,14.43
2023-01-01T09:19:51.370Z,14.50
2023-01-01T09:23:03.996Z,14.56
2023-01-01T09:26:12.979Z,14.65
2023-01-01T09:29:20.907Z,14.70
2023-01-01T09:32:27.724Z,14.73
2023-01-01T09:35:35.726Z,14.77
2023-01-01T09:38:42.410Z,14.79
2023-01-01T09:42:05.412Z,14.82
2023-01-01T09:45:27.199Z,14.87
2023-01-01T09:48:37.468Z,14.92
2023-01-01T09:51:51.097Z,14.94
2023-01-01T09:55:07.485Z,14.96
2023-01-01T09:58:15.915Z,15.01
2023-01-01T10:01:37.289Z,15.05
2023-01-01T10:04:56.905Z,15.09
2023-01-01T10:08:11.360Z,15.11
2023-01-01T10:11:26.940Z,15.14
2023-01-01T10:14:37.499Z,15.15
2023-01-01T10:17:49.447Z,15.15
2023-01-01T10:21:04.786Z,15.15
2023-01-01T10:24:33.052Z,15.14
2023-01-01T10:27:46.426Z,15.17
2023-01-01T10:30:59.916Z,15.18
2023-01-01T10:34:17.017Z,15.20
2023-01-01T10:37:24.441Z,15.19
2023-01-01T10:40:32.161Z,15.20
2023-01-01T10:43:39.556Z,15.19
2023-01-01T10:46:51.562Z,15.19
2023-01-01T10:50:00.874Z,15.18
2023-01-01T10:53:19.831Z,15.13
2023-01-01T10:56:28.949Z,15.09
2023-01-01T10:59:35.480Z,15.07
2023-01-01T11:02:42.403Z,15.04
2023-01-01T11:06:18.575Z,15.04
2023-01-01T11:09:27.684Z,15.06
2023-01-01T11:13:04.338Z,15.09
2023-01-01T11:16:03.109Z,15.16
2023-01-01T11:19:20.801Z,15.23
2023-01-01T11:22:42.244Z,15.33
2023-01-01T11:26:01.311Z,15.41
2023-01-01T11:29:27.727Z,15.45
2023-01-01T11:32:37.814Z,15.49
2023-01-01T11:35:54.179Z,15.53
2023-01-01T11:39:23.455Z,15.57
2023-01-01T11:42:31.834Z,15.59
2023-01-01T11:45:43.498Z,15.61
2023-01-01T11:48:50.604Z,15.65
2023-01-01T11:51:58.018Z,15.69
2023-01-01T11:55:14.708Z,15.73
2023-01-01T11:58:26.310Z,15.79
2023-01-01T12:01:40.354Z,15.85
2023-01-01T12:04:53.344Z,15.88
2023-01-01T12:08:04.340Z,15.87
2023-01-01T12:11:18.522Z,15.87
2023-01-01T12:14:33.023Z,15.85
2023-01-01T12:17:48.471Z,15.83
2023-01-01T12:20:58.606Z,15.77
2023-01-01T12:24:06.570Z,15.72
2023-01-01T12:27:29.633Z,15.67
2023-01-01T12:30:45.068Z,15.64
2023-01-01T12:34:05.888Z,15.60
2023-01-01T12:37:22.475Z,15.60
2023-01-01T12:40:53.597Z,15.60
2023-01-01T12:44:14.128Z,15.61
2023-01-01T12:47:37.776Z,15.60
2023-01-01T12:51:03.177Z,15.58
2023-01-01T12:54:50.920Z,15.55
2023-01-01T12:58:05.188Z,15.52
2023-01-01T13:01:15.918Z,15.49
2023-01-01T13:04:24.324Z,15.43
2023-01-01T13:07:37.365Z,15.34
2023-01-01T13:10:46.182Z,15.29
2023-01-01T13:13:53.011Z,15.24
2023-01-01T13:17:00.585Z,15.19
2023-01-01T13:20:26.759Z,15.16
2023-01-01T13:23:47.871Z,15.14
2023-01-01T13:26:55.250Z,15.11
2023-01-01T13:30:02.134Z,15.06
2023-01-01T13:33:25.997Z,15.00
2023-01-01T13:36:36.259Z,14.97
2023-01-01T13:39:56.990Z,14.93
2023-01-01T13:43:21.318Z,14.88
2023-01-01T13:46:36.265Z,14.84
2023-01-01T13:50:04.843Z,14.79
2023-01-01T13:53:34.018Z,14.71
2023-01-01T13:56:49.758Z,14.65
2023-01-01T14:00:06.652Z,14.60
2023-01-01T14:03:21.313Z,14.55
2023-01-01T14:06:32.021Z,14.48
2023-01-01T14:09:38.816Z,14.40
2023-01-01T14:12:45.663Z,14.33
2023-01-01T14:15:58.166Z,14.28
2023-01-01T14:19:05.958Z,14.25
2023-01-01T14:22:18.807Z,14.22
2023-01-01T14:25:29.618Z,14.18
2023-01-01T14:28:37.606Z,14.12
2023-01-01T14:31:46.880Z,14.04
2023-01-01T14:35:02.958Z,13.96
2023-01-01T14:38:27.257Z,13.88
2023-01-01T14:41:36.702Z,13.80
2023-01-01T14:44:47.814Z,13.71
2023-01-01T14:47:57.187Z,13.61
2023-01-01T14:51:04.127Z,13.51
2023-01-01T14:54:19.006Z,13.41
2023-01-01T14:57:29.138Z,13.33
2023-01-01T15:00:36.668Z,13.26
2023-01-01T15:03:55.422Z,13.18
2023-01-01T15:07:03.096Z,13.09
2023-01-01T15:10:14.836Z,13.03
2023-01-01T15:13:23.379Z,12.95
2023-01-01T15:16:38.124Z,12.88
2023-01-01T15:19:49.179Z,12.81
2023-01-01T15:22:57.189Z,12.76
2023-01-01T15:26:07.879Z,12.73
2023-01-01T15:29:28.535Z,12.69
2023-01-01T15:32:38.561Z,12.63
2023-01-01T15:35:49.811Z,12.57
2023-01-01T15:38:57.445Z,12.53
2023-01-01T15:42:04.372Z,12.48
2023-01-01T15:45:24.511Z,12.40
2023-01-01T15:48:37.542Z,12.33
2023-01-01T15:51:45.081Z,12.27
2023-01-01T15:54:51.883Z,12.21
2023-01-01T15:57:59.121Z,12.17
2023-01-01T16:01:08.473Z,12.12
2023-01-01T16:04:28.074Z,12.05
2023-01-01T16:07:35.872Z,11.96
2023-01-01T16:10:42.710Z,11.87
2023-01-01T16:13:49.380Z,11.80
2023-01-01T16:17:01.034Z,11.74
2023-01-01T16:20:11.931Z,11.70
2023-01-01T16:23:19.658Z,11.67
2023-01-01T16:26:26.814Z,11.66
2023-01-01T16:29:33.873Z,11.63
2023-01-01T16:32:40.900Z,11.59
2023-01-01T16:35:47.800Z,11.57
2023-01-01T16:38:54.630Z,11.52
2023-01-01T16:42:01.492Z,11.49
2023-01-01T16:45:15.181Z,11.45
2023-01-01T16:48:21.799Z,11.43
2023-01-01T16:51:31.773Z,11.43
2023-01-01T16:54:40.398Z,11.41
2023-01-01T16:57:48.214Z,11.39
2023-01-01T17:01:02.126Z,11.35
2023-01-01T17:04:09.562Z,11.27
2023-01-01T17:07:16.402Z,11.18
2023-01-01T17:10:23.333Z,11.08
2023-01-01T17:13:30.281Z,10.99
2023-01-01T17:16:39.795Z,10.91
2023-01-01T17:19:47.088Z,10.84
2023-01-01T17:22:53.949Z,10.77
2023-01-01T17:26:08.237Z,10.72
2023-01-01T17:29:15.206Z,10.66
2023-01-01T17:32:22.071Z,10.61
2023-01-01T17:35:33.194Z,10.55
2023-01-01T17:38:40.651Z,10.50
2023-01-01T17:41:47.489Z,10.47
2023-01-01T17:44:54.308Z,10.41
2023-01-01T17:48:01.550Z,10.36
2023-01-01T17:51:08.899Z,10.33
2023-01-01T17:54:15.808Z,10.35
2023-01-01T17:57:22.667Z,10.36
2023-01-01T18:00:29.302Z,10.39
2023-01-01T18:03:36.152Z,10.39
2023-01-01T18:06:45.840Z,10.38
2023-01-01T18:09:55.002Z,10.40
2023-01-01T18:13:01.852Z,10.42
2023-01-01T18:16:10.555Z,10.42
2023-01-01T18:19:17.612Z,10.43
2023-01-01T18:22:27.419Z,10.45
2023-01-01T18:25:34.297Z,10.45
2023-01-01T18:28:41.877Z,10.43
2023-01-01T18:31:48.825Z,10.41
2023-01-01T18:34:55.642Z,10.34
2023-01-01T18:38:02.342Z,10.28
2023-01-01T18:41:26.693Z,10.22
2023-01-01T18:44:34.930Z,10.13
2023-01-01T18:47:41.634Z,10.06
2023-01-01T18:50:48.560Z,10.01
2023-01-01T18:53:58.994Z,9.99
2023-01-01T18:57:15.449Z,9.97
2023-01-01T19:00:26.028Z,9.95
2023-01-01T19:03:40.758Z,9.95
2023-01-01T19:06:48.153Z,9.94
2023-01-01T19:09:59.011Z,9.95
2023-01-01T19:13:17.238Z,9.98
2023-01-01T19:16:30.475Z,10.02
2023-01-01T19:19:41.514Z,10.05
2023-01-01T19:22:48.996Z,10.10
2023-01-01T19:25:58.498Z,10.11
2023-01-01T19:29:10.013Z,10.09
2023-01-01T19:32:17.070Z,10.03
2023-01-01T19:35:23.973Z,9.95
2023-01-01T19:38:30.731Z,9.88
2023-01-01T19:41:38.996Z,9.85
2023-01-01T19:44:45.633Z,9.85
2023-01-01T19:47:52.393Z,9.86
2023-01-01T19:50:59.471Z,9.89
2023-01-01T19:54:07.169Z,9.92
2023-01-01T19:57:14.189Z,9.93
2023-01-01T20:00:21.405Z,9.92
2023-01-01T20:03:54.153Z,9.90
2023-01-01T20:06:55.083Z,9.87
2023-01-01T20:10:01.817Z,9.86
2023-01-01T20:13:09.539Z,9.86
2023-01-01T20:16:16.293Z,9.87
2023-01-01T20:19:23.080Z,9.90
2023-01-01T20:22:29.955Z,9.93
2023-01-01T20:25:36.767Z,9.94
2023-01-01T20:29:00.426Z,9.95
2023-01-01T20:32:12.690Z,9.96
2023-01-01T20:35:40.460Z,10.00
2023-01-01T20:38:47.359Z,10.05
2023-01-01T20:41:54.308Z,10.08
2023-01-01T20:45:01.504Z,10.11
2023-01-01T20:48:08.850Z,10.12
2023-01-01T20:51:15.575Z,10.14
2023-01-01T20:54:23.685Z,10.14
2023-01-01T20:57:31.195Z,10.14
2023-01-01T21:00:38.088Z,10.15
2023-01-01T21:03:44.989Z,10.18
2023-01-01T21:06:51.792Z,10.21
2023-01-01T21:09:58.616Z,10.26
2023-01-01T21:13:05.390Z,10.27
2023-01-01T21:16:19.253Z,10.28
2023-01-01T21:19:27.366Z,10.29
2023-01-01T21:22:34.837Z,10.30
2023-01-01T21:25:51.442Z,10.32
2023-01-01T21:29:02.949Z,10.35
2023-01-01T21:32:19.071Z,10.38
2023-01-01T21:35:31.768Z,10.40
2023-01-01T21:38:38.417Z,10.40
2023-01-01T21:41:45.301Z,10.40
2023-01-01T21:44:56.672Z,10.41
2023-01-01T21:48:14.875Z,10.43
2023-01-01T21:51:25.908Z,10.43
2023-01-01T21:54:36.567Z,10.42
2023-01-01T21:57:45.829Z,10.40
2023-01-01T22:00:52.736Z,10.38
2023-01-01T22:04:04.537Z,10.35
2023-01-01T22:07:56.636Z,10.30
2023-01-01T22:10:48.042Z,10.29
2023-01-01T22:13:55.536Z,10.29
2023-01-01T22:17:03.298Z,10.29
2023-01-01T22:20:21.044Z,10.30
2023-01-01T22:23:36.447Z,10.30
2023-01-01T22:26:43.246Z,10.29
2023-01-01T22:29:50.299Z,10.29
2023-01-01T22:33:00.351Z,10.29
2023-01-01T22:36:16.097Z,10.32
2023-01-01T22:39:29.555Z,10.35
2023-01-01T22:42:39.897Z,10.40
2023-01-01T22:45:48.733Z,10.44
2023-01-01T22:48:59.070Z,10.45
2023-01-01T22:52:07.999Z,10.45
2023-01-01T22:55:14.982Z,10.43
2023-01-01T22:58:24.600Z,10.40
2023-01-01T23:01:31.218Z,10.37
2023-01-01T23:04:38.297Z,10.34
2023-01-01T23:07:45.454Z,10.32
2023-01-01T23:10:52.313Z,10.31
2023-01-01T23:14:16.887Z,10.29
2023-01-01T23:17:23.660Z,10.24
2023-01-01T23:20:31.373Z,10.20
2023-01-01T23:23:39.315Z,10.15
2023-01-01T23:26:47.010Z,10.10
2023-01-01T23:29:55.120Z,10.05
2023-01-01T23:33:02.091Z,10.02
2023-01-01T23:36:10.663Z,10.00
2023-01-01T23:39:17.443Z,9.98
2023-01-01T23:42:24.235Z,9.97
2023-01-01T23:45:31.097Z,9.96
2023-01-01T23:48:38.086Z,9.94
2023-01-01T23:51:44.859Z,9.91
2023-01-01T23:54:51.612Z,9.89
2023-01-01T23:57:58.341Z,9.85
